Hoegh Berlin — C6XQ4 — position and weather

sailwx.info

Track history (hours):
 
Tides and Currents Weather Stations Pressure Air Temp Water Temp Dewpoint Dewpoint Depression Visibility Wind Speed Wind Dir Waves Ship Positions

Hoegh Berlin

Last reported at 2014-Jul-14 02:33 UTC. Time now 2014-Jul-23 16:19 UTC.
Position N 30°02' W 122°04'.
Warning: this ship's position is 9 days out of date.

Length 228 m; draft 9.4 m.

Type: Cargo ship. MMSI: 311019100.

Date/timePositionNaut miles runAvg speedWind from/ knotsBaromVisibWave heightAir tempDewpointWater temp
2014-Jul-14 02:33N 30°02' W 122°04'3917.3
2014-Jul-14 00:18N 30°23' W 122°42'3117.5
2014-Jul-13 22:33N 30°39' W 123°12'1817.6
2014-Jul-13 21:33N 30°48' W 123°29'1917.7
2014-Jul-13 20:28N 30°58' W 123°48'1617.5
2014-Jul-13 19:32N 31°07' W 124°05'5217.6
2014-Jul-13 16:33N 31°35' W 124°57'2017.5
2014-Jul-13 15:26N 31°45' W 125°16'1517.6
2014-Jul-13 14:33N 31°54' W 125°31'1817.8
2014-Jul-13 13:33N 32°03' W 125°49'2217.7
2014-Jul-13 12:19N 32°15' W 126°11'1617.9
2014-Jul-13 11:26N 32°23' W 126°27'2417.8
2014-Jul-13 10:07N 32°36' W 126°50'1117.8
2014-Jul-13 09:29N 32°42' W 127°02'2217.6
2014-Jul-13 08:14N 32°53' W 127°24'1417.4
2014-Jul-13 07:27N 33°00' W 127°38'2117.3
2014-Jul-13 06:14N 33°12' W 127°59'1317.5
2014-Jul-13 05:28N 33°19' W 128°12'15817.4
2014-Jul-12 20:22N 34°39' W 130°57'2017.4
2014-Jul-12 19:14N 34°48' W 131°18'  
Track history (hours):
 
Tides and Currents Weather Stations Pressure Air Temp Water Temp Dewpoint Dewpoint Depression Visibility Wind Speed Wind Dir Waves Ship Positions

Hoegh Berlin

Last reported at 2014-Jul-14 02:33 UTC. Time now 2014-Jul-23 16:19 UTC.
Position N 30°02' W 122°04'.
Warning: this ship's position is 9 days out of date.

Length 228 m; draft 9.4 m.

Type: Cargo ship. MMSI: 311019100.

Date/timePositionNaut miles runAvg speedWind from/ knotsBaromVisibWave heightAir tempDewpointWater temp
2014-Jul-14 02:33N 30°02' W 122°04'3917.3
2014-Jul-14 00:18N 30°23' W 122°42'3117.5
2014-Jul-13 22:33N 30°39' W 123°12'1817.6
2014-Jul-13 21:33N 30°48' W 123°29'1917.7
2014-Jul-13 20:28N 30°58' W 123°48'1617.5
2014-Jul-13 19:32N 31°07' W 124°05'5217.6
2014-Jul-13 16:33N 31°35' W 124°57'2017.5
2014-Jul-13 15:26N 31°45' W 125°16'1517.6
2014-Jul-13 14:33N 31°54' W 125°31'1817.8
2014-Jul-13 13:33N 32°03' W 125°49'2217.7
2014-Jul-13 12:19N 32°15' W 126°11'1617.9
2014-Jul-13 11:26N 32°23' W 126°27'2417.8
2014-Jul-13 10:07N 32°36' W 126°50'1117.8
2014-Jul-13 09:29N 32°42' W 127°02'2217.6
2014-Jul-13 08:14N 32°53' W 127°24'1417.4
2014-Jul-13 07:27N 33°00' W 127°38'2117.3
2014-Jul-13 06:14N 33°12' W 127°59'1317.5
2014-Jul-13 05:28N 33°19' W 128°12'15817.4
2014-Jul-12 20:22N 34°39' W 130°57'2017.4
2014-Jul-12 19:14N 34°48' W 131°18'  

Dump ship's entire track history